Time;durP1;ratioP1;P1;durP2;ratioP2;P2;SDS_P1;SDS_P2;PMS_P1;PMS_P2;Temp;Humidity;BMP_temperature;BMP_pressure;BME280_temperature;BME280_humidity;BME280_pressure;Samples;Min_cycle;Max_cycle;Signal;HPM_P1;HPM_P2
2022/04/19 00:01:20;;;;;;;;;;;4.70;99.90;;;;;;5090868;28;20043;-64
2022/04/19 00:03:45;;;;;;;5.22;3.53;;;4.60;99.90;;;;;;5083427;28;19916;-65
2022/04/19 00:06:11;;;;;;;7.53;3.58;;;4.60;99.90;;;;;;5088143;28;20701;-66
2022/04/19 00:08:37;;;;;;;;;;;4.60;99.90;;;;;;5080544;28;20056;-65
2022/04/19 00:11:04;;;;;;;7.13;4.05;;;4.60;99.90;;;;;;5081470;28;19927;-65
2022/04/19 00:13:30;;;;;;;8.43;4.20;;;4.50;99.90;;;;;;5081554;28;20063;-65
2022/04/19 00:15:56;;;;;;;6.05;4.00;;;4.50;99.90;;;;;;5080508;28;20066;-65
2022/04/19 00:18:23;;;;;;;7.57;4.07;;;4.50;99.90;;;;;;5070019;28;20055;-65
2022/04/19 00:20:49;;;;;;;7.35;4.07;;;4.40;99.90;;;;;;5079256;28;20040;-66
2022/04/19 00:23:16;;;;;;;9.15;4.10;;;4.50;99.90;;;;;;5070976;28;20540;-65
2022/04/19 00:25:43;;;;;;;7.05;4.00;;;4.40;99.90;;;;;;5078476;28;20098;-65
2022/04/19 00:28:10;;;;;;;7.00;4.25;;;4.40;99.90;;;;;;5072331;28;20056;-65
2022/04/19 00:30:36;;;;;;;9.38;4.95;;;4.40;99.90;;;;;;5075488;28;20036;-65
2022/04/19 00:33:04;;;;;;;10.38;4.18;;;4.40;99.90;;;;;;5074082;28;20095;-65
2022/04/19 00:35:29;;;;;;;5.78;3.63;;;4.30;99.90;;;;;;5076151;28;20059;-65
2022/04/19 00:37:55;;;;;;;;;;;4.30;99.90;;;;;;5076242;28;20040;-65
2022/04/19 00:40:21;;;;;;;5.47;3.63;;;4.30;99.90;;;;;;5072948;28;19952;-65
2022/04/19 00:42:47;;;;;;;;;;;4.20;99.90;;;;;;5089063;28;20131;-64
2022/04/19 00:45:13;;;;;;;7.65;4.72;;;4.30;99.90;;;;;;5082311;28;19927;-65
2022/04/19 00:47:40;;;;;;;6.15;3.72;;;4.30;99.90;;;;;;5066929;28;20044;-65
2022/04/19 00:50:07;;;;;;;7.45;4.07;;;4.30;99.90;;;;;;5066873;28;20489;-65
2022/04/19 00:52:34;;;;;;;11.95;5.13;;;4.20;99.90;;;;;;5076299;28;20032;-68
2022/04/19 00:55:01;;;;;;;11.48;4.43;;;4.30;99.90;;;;;;5078545;28;20033;-65
2022/04/19 00:57:28;;;;;;;12.65;5.05;;;4.30;99.90;;;;;;5072092;28;20048;-64
2022/04/19 00:59:55;;;;;;;9.48;4.38;;;4.30;99.90;;;;;;5067108;28;20067;-64
2022/04/19 01:02:25;;;;;;;6.28;3.90;;;4.30;99.90;;;;;;5082282;28;20503;-65
2022/04/19 01:04:52;;;;;;;8.52;3.90;;;4.30;99.90;;;;;;5087099;28;20147;-65
2022/04/19 01:07:19;;;;;;;6.03;3.67;;;4.20;99.90;;;;;;5073101;28;20048;-64
2022/04/19 01:09:46;;;;;;;8.77;4.30;;;4.20;99.90;;;;;;5070337;28;20074;-64
2022/04/19 01:14:57;;;;;;;10.38;4.43;;;4.20;99.90;;;;;;5067284;28;20124;-65
2022/04/19 01:17:26;;;;;;;7.20;4.85;;;4.10;99.90;;;;;;5074882;28;20155;-65
2022/04/19 01:19:52;;;;;;;6.82;4.40;;;4.00;99.90;;;;;;5067255;28;20119;-65
2022/04/19 01:22:18;;;;;;;9.82;5.53;;;4.00;99.90;;;;;;5066872;28;20049;-65
2022/04/19 01:24:43;;;;;;;7.57;4.35;;;4.00;99.90;;;;;;5086622;28;20085;-65
2022/04/19 01:27:09;;;;;;;7.55;3.95;;;4.00;99.90;;;;;;5073404;28;20139;-65
2022/04/19 01:29:35;;;;;;;7.80;4.55;;;3.90;99.90;;;;;;5085622;28;20040;-65
2022/04/19 01:32:04;;;;;;;;;;;3.80;99.90;;;;;;5073009;28;20054;-65
2022/04/19 01:34:31;;;;;;;7.00;4.20;;;3.80;99.90;;;;;;5066845;28;19946;-65
2022/04/19 01:36:57;;;;;;;6.05;3.90;;;3.70;99.90;;;;;;5067013;28;20048;-65
2022/04/19 01:40:23;;;;;;;8.25;4.38;;;3.70;99.90;;;;;;5069280;28;20045;-65
2022/04/19 01:42:17;;;;;;;8.55;3.78;;;3.70;99.90;;;;;;5066039;28;20044;-65
2022/04/19 01:44:43;;;;;;;9.05;4.25;;;3.60;99.90;;;;;;5068929;28;20039;-65
2022/04/19 01:47:09;;;;;;;;;;;3.60;99.90;;;;;;5065423;28;20040;-65
2022/04/19 01:49:35;;;;;;;10.20;4.65;;;3.60;99.90;;;;;;5066425;28;19931;-65
2022/04/19 01:52:02;;;;;;;6.85;4.70;;;3.60;99.90;;;;;;5066401;28;20396;-65
2022/04/19 01:54:33;;;;;;;9.65;3.80;;;3.60;99.90;;;;;;5081405;28;20040;-65
2022/04/19 01:56:59;;;;;;;15.52;4.47;;;3.60;99.90;;;;;;5078613;28;20056;-64
2022/04/19 01:59:24;;;;;;;8.95;4.60;;;3.60;99.90;;;;;;5080750;28;20109;-64
2022/04/19 02:01:51;;;;;;;8.02;4.60;;;3.60;99.90;;;;;;5077879;28;20090;-64
2022/04/19 02:04:18;;;;;;;8.35;4.30;;;3.60;99.90;;;;;;5078711;28;20048;-64
2022/04/19 02:06:44;;;;;;;8.15;5.22;;;3.50;99.90;;;;;;5081470;28;20045;-65
2022/04/19 02:09:09;;;;;;;7.40;4.20;;;3.50;99.90;;;;;;5072581;28;20430;-65
2022/04/19 02:11:37;;;;;;;8.30;4.47;;;3.50;99.90;;;;;;5070807;28;20131;-64
2022/04/19 02:14:03;;;;;;;8.20;4.80;;;3.50;99.90;;;;;;5079160;28;20032;-64
2022/04/19 02:16:29;;;;;;;11.52;5.10;;;3.50;99.90;;;;;;5066220;28;20545;-64
2022/04/19 02:18:55;;;;;;;6.60;4.00;;;3.40;99.90;;;;;;5069236;28;20070;-64
2022/04/19 02:21:20;;;;;;;7.88;4.97;;;3.40;99.90;;;;;;5059661;28;20428;-64
2022/04/19 02:23:46;;;;;;;7.38;4.78;;;3.40;99.90;;;;;;5080352;28;20037;-64
2022/04/19 02:26:12;;;;;;;11.20;4.80;;;3.40;99.90;;;;;;5065974;28;20095;-64
2022/04/19 02:28:37;;;;;;;7.65;4.53;;;3.40;99.90;;;;;;5080306;28;20071;-64
2022/04/19 02:31:03;;;;;;;8.13;4.70;;;3.40;99.90;;;;;;5065276;28;20043;-64
2022/04/19 02:33:29;;;;;;;11.98;5.32;;;3.40;99.90;;;;;;5080764;28;20048;-64
2022/04/19 02:35:55;;;;;;;11.25;5.13;;;3.40;99.90;;;;;;5065803;28;20649;-63
2022/04/19 02:38:20;;;;;;;10.82;4.85;;;3.30;99.90;;;;;;5066266;28;20163;-63
2022/04/19 02:40:46;;;;;;;8.75;4.57;;;3.30;99.90;;;;;;5064878;28;20040;-63
2022/04/19 02:43:13;;;;;;;10.98;5.53;;;3.30;99.90;;;;;;5076962;28;20048;-64
2022/04/19 02:45:39;;;;;;;8.55;4.93;;;3.40;99.90;;;;;;5067282;28;20660;-64
2022/04/19 02:48:07;;;;;;;8.63;4.72;;;3.30;99.90;;;;;;5078991;28;20033;-64
2022/04/19 02:50:39;;;;;;;8.50;5.25;;;3.30;99.90;;;;;;5075080;28;20543;-64
2022/04/19 02:53:04;;;;;;;6.85;4.78;;;3.30;99.90;;;;;;5072206;28;20259;-64
2022/04/19 02:55:30;;;;;;;9.10;5.07;;;3.30;99.90;;;;;;5080820;28;20534;-64
2022/04/19 02:57:56;;;;;;;7.60;4.88;;;3.30;99.90;;;;;;5077416;28;20045;-64
2022/04/19 03:00:23;;;;;;;12.82;4.90;;;3.30;99.90;;;;;;5077522;28;20071;-65
2022/04/19 03:02:49;;;;;;;8.27;5.05;;;3.20;99.90;;;;;;5081835;28;20089;-65
2022/04/19 03:05:15;;;;;;;9.93;5.15;;;3.20;99.90;;;;;;5073421;28;20127;-64
2022/04/19 03:07:41;;;;;;;6.88;4.60;;;3.10;99.90;;;;;;5070190;28;20701;-64
2022/04/19 03:10:07;;;;;;;8.10;5.10;;;3.10;99.90;;;;;;5075236;28;20241;-64
2022/04/19 03:12:33;;;;;;;9.48;4.78;;;3.10;99.90;;;;;;5081983;28;20040;-64
2022/04/19 03:14:58;;;;;;;8.15;4.65;;;3.10;99.90;;;;;;5073357;28;20055;-64
2022/04/19 03:17:26;;;;;;;10.30;5.25;;;3.10;99.90;;;;;;5092855;28;20099;-64
2022/04/19 03:19:53;;;;;;;10.70;4.88;;;3.10;99.90;;;;;;5066032;28;20061;-64
2022/04/19 03:22:19;;;;;;;6.60;4.22;;;3.10;99.90;;;;;;5065428;28;20055;-64
2022/04/19 03:27:41;;;;;;;9.07;5.18;;;3.10;99.90;;;;;;5065531;28;20048;-64
2022/04/19 03:30:09;;;;;;;8.55;4.60;;;3.10;99.90;;;;;;5065629;28;20128;-64
2022/04/19 03:32:36;;;;;;;8.55;4.72;;;3.10;99.90;;;;;;5064848;28;20047;-64
2022/04/19 03:35:02;;;;;;;12.10;5.32;;;3.00;99.90;;;;;;5070067;28;20478;-64
2022/04/19 03:37:30;;;;;;;8.63;5.10;;;3.00;99.90;;;;;;5077681;28;20044;-63
2022/04/19 03:39:56;;;;;;;8.85;5.10;;;3.00;99.90;;;;;;5069928;28;20725;-63
2022/04/19 03:42:21;;;;;;;9.40;4.97;;;3.00;99.90;;;;;;5084643;28;20082;-64
2022/04/19 03:44:47;;;;;;;9.77;5.60;;;3.00;99.90;;;;;;5071086;28;20155;-63
2022/04/19 03:47:13;;;;;;;8.95;4.82;;;2.90;99.90;;;;;;5085227;28;20044;-63
2022/04/19 03:49:41;;;;;;;8.10;4.65;;;2.90;99.90;;;;;;5070844;28;20044;-64
2022/04/19 03:52:08;;;;;;;10.85;4.88;;;2.90;99.90;;;;;;5064539;28;20112;-64
2022/04/19 03:54:34;;;;;;;9.65;5.57;;;2.90;99.90;;;;;;5068105;28;20047;-66
2022/04/19 03:57:07;;;;;;;13.07;5.22;;;2.90;99.90;;;;;;5086316;28;20050;-64
2022/04/19 03:59:34;;;;;;;12.90;4.93;;;2.90;99.90;;;;;;5075571;28;20036;-64
2022/04/19 04:02:00;;;;;;;8.50;5.22;;;2.90;99.90;;;;;;5066753;28;20471;-65
2022/04/19 04:04:30;;;;;;;10.45;5.60;;;2.90;99.90;;;;;;5081442;28;20415;-64
2022/04/19 04:06:57;;;;;;;11.23;5.65;;;2.90;99.90;;;;;;5071025;28;20060;-64
2022/04/19 04:09:24;;;;;;;6.90;4.55;;;2.90;99.90;;;;;;5072649;28;20045;-64
2022/04/19 04:11:49;;;;;;;8.57;5.35;;;2.90;99.90;;;;;;5067350;28;20044;-64
2022/04/19 04:14:15;;;;;;;8.23;5.20;;;2.80;99.90;;;;;;5073438;28;20040;-64
2022/04/19 04:16:40;;;;;;;10.20;5.43;;;2.80;99.90;;;;;;5075209;28;20070;-64
2022/04/19 04:19:06;;;;;;;10.25;5.53;;;2.80;99.90;;;;;;5074166;28;20035;-64
2022/04/19 04:21:31;;;;;;;7.85;5.60;;;2.80;99.90;;;;;;5075984;28;20033;-64
2022/04/19 04:23:57;;;;;;;10.23;5.50;;;2.80;99.90;;;;;;5066771;28;20473;-64
2022/04/19 04:26:23;;;;;;;9.30;5.13;;;2.80;99.90;;;;;;5068545;28;20174;-64
2022/04/19 04:28:48;;;;;;;;;;;2.70;99.90;;;;;;5068560;28;20587;-65
2022/04/19 04:31:14;;;;;;;7.55;4.60;;;2.70;99.90;;;;;;5066408;28;20004;-64
2022/04/19 04:33:39;;;;;;;8.45;5.45;;;2.80;99.90;;;;;;5066278;28;20170;-65
2022/04/19 04:36:05;;;;;;;7.57;4.88;;;2.80;99.90;;;;;;5066876;28;20129;-64
2022/04/19 04:38:31;;;;;;;12.27;5.82;;;2.80;99.90;;;;;;5068000;28;20116;-64
2022/04/19 04:40:57;;;;;;;;;;;2.80;99.90;;;;;;5065219;28;20040;-64
2022/04/19 04:43:22;;;;;;;13.20;5.15;;;2.80;99.90;;;;;;5067209;28;19920;-64
2022/04/19 04:49:35;;;;;;;9.50;5.13;;;2.90;99.90;;;;;;5069418;28;20046;-64
2022/04/19 04:51:17;;;;;;;12.65;5.40;;;3.60;99.90;;;;;;5074018;28;20063;-65
2022/04/19 04:53:43;;;;;;;10.63;4.53;;;4.60;99.90;;;;;;5065898;28;20064;-64
2022/04/19 04:56:09;;;;;;;9.85;4.68;;;5.10;99.90;;;;;;5073211;28;20044;-64
2022/04/19 04:58:34;;;;;;;;;;;5.30;99.90;;;;;;5088418;28;20036;-65
2022/04/19 05:01:00;;;;;;;8.38;5.03;;;5.50;99.90;;;;;;5070938;28;19916;-65
2022/04/19 05:03:25;;;;;;;;;;;5.70;99.90;;;;;;5087840;28;20036;-67
2022/04/19 05:05:51;;;;;;;12.93;4.60;;;5.70;99.90;;;;;;5071990;28;19920;-67
2022/04/19 05:08:18;;;;;;;11.18;4.90;;;6.00;99.90;;;;;;5072692;28;20495;-67
2022/04/19 05:10:44;;;;;;;8.68;4.57;;;6.20;99.70;;;;;;5064866;28;20449;-67
2022/04/19 05:13:09;;;;;;;;;;;6.40;99.00;;;;;;5067274;28;20051;-66
2022/04/19 05:15:35;;;;;;;9.85;4.65;;;6.50;98.90;;;;;;5077806;28;19920;-67
2022/04/19 05:18:01;;;;;;;;;;;6.40;99.20;;;;;;5070178;28;20037;-66
2022/04/19 05:20:26;;;;;;;8.75;4.75;;;6.40;99.40;;;;;;5070248;28;19923;-67
2022/04/19 05:22:52;;;;;;;;;;;6.90;99.20;;;;;;5072565;28;20095;-67
2022/04/19 05:25:18;;;;;;;7.95;4.10;;;8.20;96.50;;;;;;5067664;28;19920;-67
2022/04/19 05:27:43;;;;;;;;;;;9.30;94.70;;;;;;5081720;28;20507;-67
2022/04/19 05:30:09;;;;;;;12.75;4.28;;;10.40;91.50;;;;;;5081830;28;19916;-65
2022/04/19 05:32:35;;;;;;;;;;;11.50;90.30;;;;;;5065996;28;20048;-66
2022/04/19 05:35:00;;;;;;;7.70;4.03;;;12.20;83.30;;;;;;5063575;28;19922;-66
2022/04/19 05:37:26;;;;;;;;;;;12.80;83.40;;;;;;5056046;28;20530;-66
2022/04/19 05:39:51;;;;;;;5.57;3.78;;;13.10;78.00;;;;;;5065372;28;19963;-66
2022/04/19 05:42:17;;;;;;;;;;;13.60;78.20;;;;;;5073498;28;20108;-65
2022/04/19 05:44:43;;;;;;;6.57;3.70;;;13.90;75.40;;;;;;5086175;28;20027;-65
2022/04/19 05:47:09;;;;;;;11.65;3.42;;;13.00;77.10;;;;;;5071019;28;20055;-65
2022/04/19 05:49:35;;;;;;;6.70;4.13;;;12.00;80.60;;;;;;5084804;28;20131;-66
2022/04/19 05:52:01;;;;;;;;;;;11.60;83.60;;;;;;5080340;28;20107;-66
2022/04/19 05:54:27;;;;;;;9.77;4.00;;;12.00;82.80;;;;;;5066341;28;19920;-68
2022/04/19 05:56:53;;;;;;;;;;;12.10;80.70;;;;;;5082632;28;20043;-65
2022/04/19 05:59:19;;;;;;;4.93;3.35;;;11.60;82.00;;;;;;5063102;28;19917;-66
2022/04/19 06:07:13;;;;;;;5.28;3.95;;;14.20;77.80;;;;;;5069143;28;20144;-66
2022/04/19 06:09:39;;;;;;;;;;;14.20;73.60;;;;;;5066048;28;20048;-65
2022/04/19 06:12:05;;;;;;;9.18;4.30;;;13.50;75.80;;;;;;5063920;28;19916;-65
2022/04/19 06:14:31;;;;;;;4.28;2.90;;;12.80;78.20;;;;;;5067785;28;20028;-66
2022/04/19 06:16:56;;;;;;;;;;;13.30;79.40;;;;;;5065631;28;20047;-67
2022/04/19 06:19:22;;;;;;;5.45;3.42;;;14.60;74.70;;;;;;5065559;28;19981;-66
2022/04/19 06:21:48;;;;;;;5.05;3.72;;;16.00;73.00;;;;;;5077197;28;20694;-66
2022/04/19 06:24:14;;;;;;;12.77;3.72;;;17.10;66.20;;;;;;5066916;28;20788;-68
2022/04/19 06:26:40;;;;;;;4.90;3.30;;;17.60;63.70;;;;;;5065052;28;20068;-68
2022/04/19 06:29:06;;;;;;;6.35;3.67;;;17.50;63.40;;;;;;5065314;28;20055;-68
2022/04/19 06:31:32;;;;;;;5.72;3.70;;;17.80;63.20;;;;;;5063592;28;20190;-68
2022/04/19 06:33:58;;;;;;;6.88;3.80;;;17.40;59.90;;;;;;5067069;28;20036;-68
2022/04/19 06:36:23;;;;;;;;;;;16.80;64.90;;;;;;5068136;28;20047;-69
2022/04/19 06:38:49;;;;;;;7.60;3.10;;;16.50;65.30;;;;;;5066187;28;19916;-68
2022/04/19 06:41:15;;;;;;;10.05;4.57;;;17.00;67.20;;;;;;5065226;28;20585;-69
2022/04/19 06:43:40;;;;;;;10.68;4.35;;;17.30;58.90;;;;;;5065779;28;20036;-69
2022/04/19 06:46:08;;;;;;;8.32;4.03;;;18.00;59.40;;;;;;5068913;28;20054;-69
2022/04/19 06:48:34;;;;;;;9.43;4.63;;;17.70;57.90;;;;;;5064840;28;20057;-68
2022/04/19 06:51:00;;;;;;;7.13;4.20;;;17.50;59.70;;;;;;5063676;28;20049;-68
2022/04/19 06:53:29;;;;;;;5.57;4.15;;;18.10;56.60;;;;;;5066869;28;20408;-68
2022/04/19 06:55:59;;;;;;;9.10;4.35;;;18.50;56.10;;;;;;5064521;28;20106;-70
2022/04/19 06:58:24;;;;;;;7.15;4.25;;;19.00;58.70;;;;;;5063570;28;20097;-69
2022/04/19 07:00:50;;;;;;;8.57;5.25;;;18.80;57.40;;;;;;5063325;28;20040;-69
2022/04/19 07:03:16;;;;;;;9.10;5.70;;;18.20;56.70;;;;;;5066363;28;20068;-68
2022/04/19 07:05:42;;;;;;;9.40;6.10;;;17.70;53.80;;;;;;5064074;28;20461;-68
2022/04/19 07:08:07;;;;;;;7.45;5.10;;;17.10;54.20;;;;;;5066413;28;20090;-72
2022/04/19 07:10:36;;;;;;;9.35;6.03;;;16.30;58.50;;;;;;5069178;28;20037;-69
2022/04/19 07:13:03;;;;;;;7.68;4.93;;;15.60;58.60;;;;;;5068027;28;20557;-68
2022/04/19 07:15:29;;;;;;;9.57;4.75;;;15.20;61.80;;;;;;5064304;28;20041;-66
2022/04/19 07:17:54;;;;;;;;;;;15.10;62.70;;;;;;5077375;28;20093;-66
2022/04/19 07:28:36;;;;;;;8.88;5.55;;;15.20;62.20;;;;;;5065895;28;20032;-65
2022/04/19 07:31:03;;;;;;;8.48;5.53;;;15.50;59.70;;;;;;5066007;28;20051;-65
2022/04/19 07:33:37;;;;;;;10.15;5.57;;;15.90;59.40;;;;;;5070101;28;20041;-66
2022/04/19 07:36:03;;;;;;;9.60;5.03;;;15.90;57.20;;;;;;5047629;28;20105;-67
2022/04/19 07:38:28;;;;;;;;;;;15.60;59.10;;;;;;5065895;28;20028;-66
2022/04/19 07:40:54;;;;;;;7.68;5.18;;;15.10;60.40;;;;;;5068553;28;19920;-67
2022/04/19 07:43:19;;;;;;;;;;;14.60;60.60;;;;;;5082342;28;20032;-67
2022/04/19 07:45:45;;;;;;;8.40;4.40;;;14.70;60.30;;;;;;5069358;28;20015;-66
2022/04/19 07:48:10;;;;;;;;;;;15.20;60.90;;;;;;5081586;28;20071;-66
2022/04/19 07:50:36;;;;;;;10.35;5.30;;;15.60;59.50;;;;;;5071162;28;19928;-66
2022/04/19 07:53:01;;;;;;;;;;;15.10;57.80;;;;;;5078643;28;20024;-67
2022/04/19 07:55:27;;;;;;;7.25;5.18;;;14.80;60.40;;;;;;5072353;28;19948;-66
2022/04/19 07:57:53;;;;;;;8.95;5.45;;;14.70;61.20;;;;;;5075881;28;20088;-66
2022/04/19 08:00:20;;;;;;;8.95;5.30;;;15.40;58.50;;;;;;5073617;28;20404;-67
2022/04/19 08:02:48;;;;;;;7.88;5.38;;;16.40;58.80;;;;;;5073281;28;20106;-67
2022/04/19 08:05:14;;;;;;;9.07;5.68;;;16.90;53.90;;;;;;5075779;28;20036;-67
2022/04/19 08:07:40;;;;;;;9.60;5.05;;;17.20;55.10;;;;;;5065914;28;20040;-68
2022/04/19 08:10:06;;;;;;;8.50;4.97;;;18.00;53.00;;;;;;5067113;28;20048;-68
2022/04/19 08:12:32;;;;;;;8.52;5.50;;;18.70;53.90;;;;;;5069843;28;20040;-69
2022/04/19 08:14:58;;;;;;;10.02;5.13;;;18.80;53.30;;;;;;5079540;28;20054;-67
2022/04/19 08:17:24;;;;;;;6.72;4.35;;;18.80;49.60;;;;;;5068417;28;20052;-66
2022/04/19 08:19:49;;;;;;;7.55;3.92;;;18.80;50.90;;;;;;5081096;28;20037;-67
2022/04/19 08:22:16;;;;;;;6.43;4.18;;;18.30;50.50;;;;;;5070328;28;20047;-67
2022/04/19 08:24:42;;;;;;;7.78;4.68;;;18.10;49.90;;;;;;5082100;28;20046;-67
2022/04/19 08:27:08;;;;;;;6.00;4.30;;;18.40;51.50;;;;;;5065595;28;20152;-68
2022/04/19 08:29:33;;;;;;;9.48;4.30;;;17.80;51.30;;;;;;5082279;28;20131;-66
2022/04/19 08:32:07;;;;;;;7.68;4.20;;;18.00;53.50;;;;;;5065642;28;20141;-67
2022/04/19 08:34:35;;;;;;;7.28;4.20;;;18.60;50.80;;;;;;5067659;28;20139;-67
2022/04/19 08:37:05;;;;;;;8.07;4.15;;;18.70;50.90;;;;;;5067391;28;20045;-66
2022/04/19 08:39:38;;;;;;;5.75;3.95;;;18.60;50.20;;;;;;5068493;28;20441;-66
2022/04/19 08:42:06;;;;;;;8.80;4.57;;;18.30;51.10;;;;;;5087591;28;20586;-65
2022/04/19 08:44:35;;;;;;;9.55;4.68;;;17.20;53.10;;;;;;5072168;28;20048;-67
2022/04/19 08:47:09;;;;;;;6.00;3.83;;;15.80;60.50;;;;;;5088083;28;20143;-66
2022/04/19 08:49:41;;;;;;;7.60;4.13;;;15.10;63.30;;;;;;5087846;28;20047;-67
2022/04/19 08:52:19;;;;;;;10.32;4.85;;;15.00;62.70;;;;;;5066283;28;20087;-68
2022/04/19 08:57:35;;;;;;;9.68;5.22;;;14.40;63.60;;;;;;5066812;28;20116;-67
2022/04/19 09:00:07;;;;;;;13.32;5.07;;;14.00;65.40;;;;;;5068832;28;20103;-65
2022/04/19 09:02:45;;;;;;;10.40;4.82;;;13.80;65.30;;;;;;5077047;28;20079;-66
2022/04/19 09:05:27;;;;;;;8.55;5.10;;;13.50;66.00;;;;;;5084255;28;20028;-66
2022/04/19 09:08:00;;;;;;;8.70;5.00;;;13.20;67.10;;;;;;5076164;28;20048;-66
2022/04/19 09:10:34;;;;;;;12.02;5.35;;;13.20;66.70;;;;;;5075743;28;20104;-66
2022/04/19 09:13:09;;;;;;;7.28;4.32;;;13.20;68.40;;;;;;5085439;28;20547;-66
2022/04/19 09:15:43;;;;;;;7.38;4.47;;;13.10;67.50;;;;;;5070932;28;20046;-66
2022/04/19 09:18:32;;;;;;;7.35;4.47;;;13.10;68.10;;;;;;5087075;28;20043;-66
2022/04/19 09:21:06;;;;;;;7.28;4.63;;;13.20;68.80;;;;;;5061162;28;20032;-65
2022/04/19 09:23:37;;;;;;;10.85;4.60;;;13.30;67.20;;;;;;5085652;28;20119;-66
2022/04/19 09:26:08;;;;;;;9.68;4.82;;;13.40;68.40;;;;;;5066174;28;20041;-68
2022/04/19 09:28:35;;;;;;;9.48;4.70;;;13.40;65.10;;;;;;5067546;28;20037;-66
2022/04/19 09:31:07;;;;;;;6.85;3.80;;;13.30;67.90;;;;;;5078969;28;20044;-67
2022/04/19 09:33:32;;;;;;;6.82;3.22;;;13.20;69.40;;;;;;5066828;28;20059;-68
2022/04/19 09:35:59;;;;;;;;;;;13.10;67.20;;;;;;5073159;28;20040;-68
2022/04/19 09:38:40;;;;;;;7.82;3.85;;;13.10;65.90;;;;;;5070928;28;19939;-69
2022/04/19 09:41:11;;;;;;;7.95;4.43;;;13.10;67.30;;;;;;5073297;28;20407;-66
2022/04/19 09:43:37;;;;;;;9.18;5.20;;;12.90;67.80;;;;;;5086755;28;20048;-66
2022/04/19 09:46:04;;;;;;;;;;;13.00;68.40;;;;;;5067464;28;20044;-66
2022/04/19 09:48:37;;;;;;;7.00;3.03;;;13.00;69.60;;;;;;5065956;28;20386;-66
2022/04/19 09:51:05;;;;;;;7.30;4.10;;;13.30;67.50;;;;;;5079353;28;20136;-67
2022/04/19 09:53:39;;;;;;;6.68;3.80;;;13.30;69.70;;;;;;5066537;28;20059;-66
2022/04/19 09:56:15;;;;;;;6.88;4.00;;;13.40;69.00;;;;;;5081408;28;20050;-66
2022/04/19 09:58:43;;;;;;;6.07;3.78;;;13.60;67.20;;;;;;5066095;28;20033;-65
2022/04/19 10:08:10;;;;;;;8.65;4.35;;;13.70;68.40;;;;;;5071355;28;20040;-65
2022/04/19 10:09:24;;;;;;;7.82;3.78;;;13.80;68.40;;;;;;5060014;28;20495;-66
2022/04/19 10:11:51;;;;;;;7.53;4.25;;;13.70;70.40;;;;;;5077946;28;20071;-66
2022/04/19 10:14:18;;;;;;;6.30;3.67;;;13.70;68.40;;;;;;5066828;28;20576;-67
2022/04/19 10:16:44;;;;;;;7.78;4.25;;;13.70;68.30;;;;;;5078245;28;20055;-67
2022/04/19 10:19:10;;;;;;;7.30;3.83;;;13.60;68.60;;;;;;5064084;28;20044;-67
2022/04/19 10:21:41;;;;;;;;;;;13.50;70.60;;;;;;5080745;28;20033;-66
2022/04/19 10:24:15;;;;;;;5.97;3.78;;;13.70;68.50;;;;;;5065475;28;20315;-66
2022/04/19 10:27:09;;;;;;;7.18;4.20;;;13.90;69.90;;;;;;5081052;28;20041;-66
2022/04/19 10:29:34;;;;;;;6.72;4.28;;;13.70;71.20;;;;;;5068993;28;20028;-66
2022/04/19 10:32:01;;;;;;;;;;;13.60;69.40;;;;;;5066768;28;20036;-66
2022/04/19 10:34:29;;;;;;;8.82;4.22;;;13.70;70.00;;;;;;5065777;28;19920;-66
2022/04/19 10:36:57;;;;;;;10.80;3.78;;;13.80;73.40;;;;;;5080304;28;20041;-66
2022/04/19 10:39:25;;;;;;;5.57;3.53;;;13.70;70.60;;;;;;5065602;28;20475;-67
2022/04/19 10:41:52;;;;;;;7.43;4.32;;;13.80;74.50;;;;;;5079424;28;20040;-66
2022/04/19 10:44:28;;;;;;;5.30;3.78;;;13.80;70.00;;;;;;5065167;28;20044;-66
2022/04/19 10:47:17;;;;;;;9.55;4.30;;;13.70;73.10;;;;;;5066582;28;20601;-66
2022/04/19 10:49:54;;;;;;;6.57;4.32;;;13.80;72.80;;;;;;5065064;28;20468;-66
2022/04/19 10:52:38;;;;;;;7.95;4.15;;;13.70;71.50;;;;;;5057724;28;20040;-67
2022/04/19 10:55:23;;;;;;;8.18;4.47;;;13.70;69.80;;;;;;5082607;28;20043;-67
2022/04/19 10:58:06;;;;;;;11.10;4.35;;;13.70;71.80;;;;;;5074823;28;20044;-65
2022/04/19 11:00:34;;;;;;;7.45;4.07;;;13.60;72.40;;;;;;5079391;28;20044;-66
2022/04/19 11:03:08;;;;;;;7.63;4.72;;;13.80;75.80;;;;;;5074807;28;20495;-67
2022/04/19 11:05:50;;;;;;;8.90;4.45;;;13.60;72.50;;;;;;5079658;28;20032;-66
2022/04/19 11:08:25;;;;;;;7.00;4.38;;;13.40;72.20;;;;;;5072372;28;20045;-66
2022/04/19 11:10:51;;;;;;;9.45;5.43;;;13.60;78.60;;;;;;5070925;28;20036;-66
2022/04/19 11:13:17;;;;;;;;;;;13.60;76.70;;;;;;5085169;28;20048;-66
2022/04/19 11:15:43;;;;;;;6.30;4.00;;;13.60;74.00;;;;;;5081499;28;19971;-65
2022/04/19 11:18:22;;;;;;;;;;;13.80;78.00;;;;;;5074398;28;20135;-65
2022/04/19 11:20:48;;;;;;;6.97;4.10;;;13.80;73.20;;;;;;5097768;28;19922;-66
2022/04/19 11:23:18;;;;;;;;;;;13.80;69.40;;;;;;5076139;28;20116;-66
2022/04/19 11:25:45;;;;;;;5.93;3.58;;;13.80;70.20;;;;;;5082192;28;19916;-66
2022/04/19 11:28:11;;;;;;;4.45;3.35;;;13.70;70.20;;;;;;5074606;28;20043;-66
2022/04/19 11:30:42;;;;;;;;;;;13.60;72.80;;;;;;5100325;28;20040;-66
2022/04/19 11:33:08;;;;;;;5.00;3.08;;;13.80;70.90;;;;;;5078300;28;19916;-65
2022/04/19 11:35:34;;;;;;;6.63;3.35;;;13.80;70.70;;;;;;5065450;28;20044;-66
2022/04/19 11:38:04;;;;;;;5.55;2.97;;;13.50;67.90;;;;;;5076324;28;20040;-66
2022/04/19 11:48:49;;;;;;;5.65;3.13;;;14.00;67.30;;;;;;5073865;28;20037;-66
2022/04/19 11:51:20;;;;;;;3.70;2.78;;;13.80;68.70;;;;;;5067732;28;20036;-66
2022/04/19 11:53:46;;;;;;;7.55;3.30;;;13.80;72.40;;;;;;5074374;28;20661;-65
2022/04/19 11:56:11;;;;;;;;;;;13.70;68.70;;;;;;5065695;28;20051;-65
2022/04/19 11:58:41;;;;;;;8.38;2.97;;;13.70;69.30;;;;;;5076354;28;19999;-65
2022/04/19 12:01:09;;;;;;;4.95;3.33;;;13.70;70.20;;;;;;5064141;28;20047;-65
2022/04/19 12:03:36;;;;;;;6.85;3.13;;;13.70;71.80;;;;;;5075109;28;20446;-66
2022/04/19 12:06:15;;;;;;;4.57;2.78;;;13.80;68.60;;;;;;5084045;28;20040;-65
2022/04/19 12:08:43;;;;;;;5.57;3.15;;;14.00;71.10;;;;;;5069729;28;20036;-65
2022/04/19 12:11:11;;;;;;;4.88;3.17;;;14.00;72.80;;;;;;5064089;28;20128;-66
2022/04/19 12:13:38;;;;;;;7.70;3.30;;;13.90;67.70;;;;;;5057290;28;20044;-64
2022/04/19 12:16:07;;;;;;;4.32;3.13;;;13.90;68.40;;;;;;5087605;28;20508;-66
2022/04/19 12:18:38;;;;;;;6.22;2.38;;;13.90;71.30;;;;;;5088748;28;20123;-66
2022/04/19 12:21:06;;;;;;;8.32;2.63;;;13.90;67.90;;;;;;5088599;28;20042;-65
2022/04/19 12:23:34;;;;;;;6.72;2.55;;;14.00;67.30;;;;;;5068198;28;20047;-67
2022/04/19 12:26:07;;;;;;;2.47;1.75;;;14.10;65.00;;;;;;5066603;28;20070;-64
2022/04/19 12:28:47;;;;;;;5.45;2.30;;;14.10;64.20;;;;;;5073274;28;20448;-62
2022/04/19 12:31:41;;;;;;;4.65;2.70;;;14.10;64.20;;;;;;5065433;28;20041;-63
2022/04/19 12:34:08;;;;;;;6.25;3.15;;;13.60;65.00;;;;;;5082378;28;20044;-62
2022/04/19 12:36:48;;;;;;;3.05;2.05;;;13.50;65.20;;;;;;5065445;28;20629;-62
2022/04/19 12:39:15;;;;;;;3.80;2.40;;;13.70;67.20;;;;;;5065637;28;20704;-62
2022/04/19 12:41:45;;;;;;;4.78;2.72;;;13.70;66.20;;;;;;5067511;28;20067;-61
2022/04/19 12:44:16;;;;;;;7.45;3.00;;;13.70;68.10;;;;;;5056655;28;20033;-61
2022/04/19 12:46:51;;;;;;;12.73;3.15;;;13.90;67.90;;;;;;5064924;28;20040;-62
2022/04/19 12:49:20;;;;;;;6.05;3.75;;;14.00;67.30;;;;;;5073803;28;20039;-62
2022/04/19 12:52:00;;;;;;;4.90;3.25;;;13.80;67.70;;;;;;5087566;28;20767;-62
2022/04/19 12:54:30;;;;;;;3.75;2.70;;;13.80;72.90;;;;;;5073432;28;20055;-62
2022/04/19 12:57:01;;;;;;;12.75;3.25;;;14.00;69.00;;;;;;5074906;28;20143;-61
2022/04/19 12:59:30;;;;;;;4.68;2.95;;;13.90;67.50;;;;;;5080449;28;20048;-63
2022/04/19 13:01:56;;;;;;;4.78;2.92;;;13.70;68.10;;;;;;5083760;28;20491;-64
2022/04/19 13:04:22;;;;;;;3.78;2.50;;;13.90;70.40;;;;;;5082223;28;20052;-63
2022/04/19 13:12:17;;;;;;;168.25;8.98;;;13.60;65.90;;;;;;5069361;28;20036;-62
2022/04/19 13:14:44;;;;;;;;;;;13.90;68.70;;;;;;5068402;28;20067;-62
2022/04/19 13:17:12;;;;;;;6.53;2.33;;;14.10;69.00;;;;;;5066645;28;20554;-63
2022/04/19 13:19:41;;;;;;;3.40;1.95;;;14.30;64.10;;;;;;5057509;28;20044;-61
2022/04/19 13:22:10;;;;;;;6.20;1.98;;;14.40;65.00;;;;;;5087186;28;20044;-62
2022/04/19 13:24:38;;;;;;;1.73;1.40;;;14.70;66.40;;;;;;5073691;28;20063;-61
2022/04/19 13:27:05;;;;;;;2.75;2.13;;;14.90;64.00;;;;;;5087240;28;20044;-62
2022/04/19 13:29:38;;;;;;;4.00;1.95;;;14.90;62.80;;;;;;5071186;28;20116;-61
2022/04/19 13:32:05;;;;;;;1.35;1.00;;;14.50;61.00;;;;;;5079946;28;20041;-61
2022/04/19 13:34:31;;;;;;;6.40;1.40;;;14.30;60.60;;;;;;5080001;28;20044;-63
2022/04/19 13:36:57;;;;;;;;;;;14.40;59.00;;;;;;5067262;28;20770;-61
2022/04/19 13:39:23;;;;;;;1.88;0.88;;;14.40;54.50;;;;;;5068534;28;20458;-61
2022/04/19 13:41:49;;;;;;;1.63;1.05;;;14.20;56.70;;;;;;5086039;28;20051;-64
2022/04/19 13:44:14;;;;;;;;;;;14.30;58.30;;;;;;5073960;28;20028;-64
2022/04/19 13:46:42;;;;;;;1.67;0.95;;;14.40;57.90;;;;;;5065989;28;19981;-64
2022/04/19 13:49:11;;;;;;;0.82;0.77;;;14.60;60.40;;;;;;5077694;28;20222;-64